createdAt,value
2023-03-24T00:04:40.871Z,8.00
2023-03-24T00:09:44.717Z,7.94
2023-03-24T00:14:48.095Z,7.99
2023-03-24T00:19:53.337Z,7.98
2023-03-24T00:24:55.944Z,7.95
2023-03-24T00:29:59.753Z,7.91
2023-03-24T00:35:03.042Z,7.87
2023-03-24T00:40:09.550Z,7.84
2023-03-24T00:45:15.598Z,7.78
2023-03-24T00:50:20.887Z,7.72
2023-03-24T00:55:23.655Z,7.63
2023-03-24T01:00:27.501Z,7.73
2023-03-24T01:05:32.359Z,7.81
2023-03-24T01:10:57.731Z,7.79
2023-03-24T01:16:00.422Z,7.77
2023-03-24T01:21:03.178Z,7.80
2023-03-24T01:26:08.036Z,7.82
2023-03-24T01:31:12.176Z,7.80
2023-03-24T01:36:15.090Z,7.77
2023-03-24T01:41:17.693Z,7.79
2023-03-24T01:46:22.518Z,7.71
2023-03-24T01:51:37.306Z,7.73
2023-03-24T01:56:44.392Z,7.75
2023-03-24T02:01:48.032Z,7.77
2023-03-24T02:07:20.382Z,7.73
2023-03-24T02:12:25.341Z,7.68
2023-03-24T02:17:54.761Z,7.62
2023-03-24T02:23:34.812Z,7.65
2023-03-24T02:28:45.678Z,7.59
2023-03-24T02:34:19.760Z,7.54
2023-03-24T02:39:26.177Z,7.51
2023-03-24T02:44:47.717Z,7.40
2023-03-24T02:50:06.271Z,7.37
2023-03-24T02:55:32.455Z,7.42
2023-03-24T03:00:48.471Z,7.46
2023-03-24T03:11:49.635Z,7.45
2023-03-24T03:17:01.789Z,7.53
2023-03-24T03:22:11.066Z,7.55
2023-03-24T03:27:19.265Z,7.40
2023-03-24T03:32:29.963Z,7.45
2023-03-24T03:38:14.968Z,7.52
2023-03-24T03:43:18.457Z,7.63
2023-03-24T03:48:21.795Z,7.60
2023-03-24T03:53:36.938Z,7.65
2023-03-24T03:58:40.216Z,7.63
2023-03-24T04:03:57.400Z,7.70
2023-03-24T04:09:43.206Z,7.73
2023-03-24T04:14:52.170Z,7.72
2023-03-24T04:20:29.229Z,7.63
2023-03-24T04:25:41.213Z,7.68
2023-03-24T04:30:58.131Z,7.75
2023-03-24T04:36:18.595Z,7.97
2023-03-24T04:41:42.174Z,8.18
2023-03-24T04:46:57.565Z,8.44
2023-03-24T04:52:01.823Z,8.63
2023-03-24T04:57:08.460Z,8.75
2023-03-24T05:02:17.098Z,8.96
2023-03-24T05:07:25.981Z,9.15
2023-03-24T05:12:33.298Z,9.29
2023-03-24T05:18:01.562Z,9.50
2023-03-24T05:23:04.193Z,9.67
2023-03-24T05:28:06.978Z,9.94
2023-03-24T05:33:10.790Z,10.05
2023-03-24T05:38:13.932Z,10.20
2023-03-24T05:43:27.016Z,10.42
2023-03-24T05:48:42.253Z,10.78
2023-03-24T05:53:52.388Z,11.05
2023-03-24T05:59:08.244Z,11.07
2023-03-24T06:04:34.308Z,11.24
2023-03-24T06:09:47.552Z,11.52
2023-03-24T06:14:51.975Z,11.80
2023-03-24T06:20:03.131Z,11.93
2023-03-24T06:25:21.767Z,12.12
2023-03-24T06:30:37.469Z,12.18
2023-03-24T06:35:41.581Z,12.41
2023-03-24T06:40:48.897Z,12.56
2023-03-24T06:45:51.733Z,12.69
2023-03-24T06:50:58.090Z,12.90
2023-03-24T06:56:01.479Z,13.22
2023-03-24T07:01:15.149Z,13.31
2023-03-24T07:06:43.240Z,13.54
2023-03-24T07:11:57.322Z,13.74
2023-03-24T07:17:00.159Z,13.86
2023-03-24T07:22:14.292Z,14.06
2023-03-24T07:27:39.404Z,14.33
2023-03-24T07:32:44.103Z,14.54
2023-03-24T07:37:47.373Z,14.51
2023-03-24T07:42:51.015Z,14.69
2023-03-24T07:48:10.915Z,14.77
2023-03-24T07:53:15.316Z,14.99
2023-03-24T07:58:19.493Z,15.14
2023-03-24T08:03:38.368Z,15.32
2023-03-24T08:09:01.500Z,15.43
2023-03-24T08:14:04.658Z,15.62
2023-03-24T08:19:07.349Z,15.71
2023-03-24T08:24:10.326Z,16.28
2023-03-24T08:29:13.125Z,16.37
2023-03-24T08:34:16.944Z,16.66
2023-03-24T08:39:20.578Z,16.83
2023-03-24T08:44:23.259Z,16.83
2023-03-24T08:49:26.258Z,16.89
2023-03-24T08:54:28.863Z,17.12
2023-03-24T08:59:31.476Z,17.20
2023-03-24T09:04:34.186Z,17.49
2023-03-24T09:09:36.816Z,17.65
2023-03-24T09:14:39.780Z,17.77
2023-03-24T09:20:02.450Z,18.05
2023-03-24T09:25:08.660Z,18.27
2023-03-24T09:30:14.647Z,18.37
2023-03-24T09:35:17.733Z,18.50
2023-03-24T09:40:30.530Z,18.49
2023-03-24T09:45:58.034Z,18.71
2023-03-24T09:51:15.632Z,18.70
2023-03-24T09:56:21.473Z,18.86
2023-03-24T10:01:24.791Z,18.94
2023-03-24T10:06:36.402Z,19.17
2023-03-24T10:12:03.372Z,19.17
2023-03-24T10:17:19.712Z,19.36
2023-03-24T10:22:26.106Z,19.33
2023-03-24T10:27:32.668Z,19.54
2023-03-24T10:32:39.580Z,19.61
2023-03-24T10:37:42.776Z,19.61
2023-03-24T11:05:31.487Z,19.54
2023-03-24T11:10:34.472Z,19.59
2023-03-24T11:15:37.759Z,19.97
2023-03-24T11:20:44.987Z,20.60
2023-03-24T11:26:02.975Z,20.83
2023-03-24T11:31:12.238Z,21.07
2023-03-24T11:36:36.098Z,21.38
2023-03-24T11:41:42.230Z,21.43
2023-03-24T11:46:48.918Z,21.33
2023-03-24T11:51:55.207Z,20.93
2023-03-24T11:57:02.972Z,21.52
2023-03-24T12:02:26.660Z,22.04
2023-03-24T12:07:54.449Z,22.28
2023-03-24T12:13:32.354Z,22.37
2023-03-24T12:19:00.139Z,22.63
2023-03-24T12:30:08.699Z,23.00
2023-03-24T12:35:27.176Z,23.82
2023-03-24T12:41:11.258Z,24.60
2023-03-24T12:46:23.010Z,24.50
2023-03-24T12:51:45.204Z,24.72
2023-03-24T12:57:00.662Z,24.56
2023-03-24T13:02:16.722Z,24.74
2023-03-24T13:07:26.051Z,25.21
2023-03-24T13:12:56.748Z,25.01
2023-03-24T13:18:28.403Z,25.43
2023-03-24T13:23:57.637Z,25.75
2023-03-24T13:29:18.741Z,25.86
2023-03-24T13:34:29.028Z,25.77
2023-03-24T13:39:34.814Z,25.75
2023-03-24T13:44:41.695Z,25.35
2023-03-24T13:50:07.045Z,24.90
2023-03-24T13:55:15.252Z,24.96
2023-03-24T14:00:27.200Z,24.86
2023-03-24T14:05:42.462Z,24.54
2023-03-24T14:10:51.007Z,24.33
2023-03-24T14:15:56.564Z,23.71
2023-03-24T14:21:09.010Z,23.42
2023-03-24T14:26:20.313Z,22.94
2023-03-24T14:31:34.989Z,22.34
2023-03-24T14:36:44.617Z,21.97
2023-03-24T14:41:52.174Z,21.45
2023-03-24T14:46:58.746Z,20.90
2023-03-24T14:52:11.610Z,20.02
2023-03-24T14:57:24.868Z,19.01
2023-03-24T15:02:33.626Z,18.45
2023-03-24T15:07:36.258Z,18.05
2023-03-24T15:12:42.975Z,17.70
2023-03-24T15:17:47.277Z,17.38
2023-03-24T15:22:51.212Z,17.10
2023-03-24T15:33:14.448Z,16.59
2023-03-24T15:38:28.481Z,16.44
2023-03-24T15:43:31.278Z,16.20
2023-03-24T15:48:38.429Z,16.10
2023-03-24T15:53:55.772Z,15.96
2023-03-24T15:59:04.152Z,15.83
2023-03-24T16:04:13.462Z,15.76
2023-03-24T16:09:22.008Z,15.62
2023-03-24T16:14:25.948Z,15.52
2023-03-24T16:19:28.908Z,15.46
2023-03-24T16:24:51.596Z,15.36
2023-03-24T16:29:54.375Z,15.26
2023-03-24T16:34:57.047Z,15.18
2023-03-24T16:40:00.816Z,15.16
2023-03-24T16:45:05.724Z,15.05
2023-03-24T16:50:37.870Z,14.98
2023-03-24T16:55:47.821Z,14.86
2023-03-24T17:00:52.040Z,14.84
2023-03-24T17:05:54.628Z,14.78
2023-03-24T17:10:57.261Z,14.72
2023-03-24T17:15:59.832Z,14.60
2023-03-24T17:21:03.292Z,14.51
2023-03-24T17:26:06.352Z,14.45
2023-03-24T17:31:09.982Z,14.37
2023-03-24T17:36:16.885Z,14.38
2023-03-24T17:41:19.679Z,14.32
2023-03-24T17:46:23.680Z,14.32
2023-03-24T17:51:26.422Z,14.26
2023-03-24T17:56:29.316Z,14.18
2023-03-24T18:01:35.737Z,14.07
2023-03-24T18:06:42.881Z,13.99
2023-03-24T18:11:47.673Z,13.90
2023-03-24T18:16:51.171Z,13.85
2023-03-24T18:21:53.834Z,13.80
2023-03-24T18:26:56.709Z,13.70
2023-03-24T18:31:59.318Z,13.69
2023-03-24T18:37:02.153Z,13.65
2023-03-24T18:42:05.048Z,13.63
2023-03-24T18:47:07.593Z,13.57
2023-03-24T18:52:10.486Z,13.58
2023-03-24T18:57:13.403Z,13.43
2023-03-24T19:02:16.090Z,13.45
2023-03-24T19:07:29.645Z,13.43
2023-03-24T19:12:32.297Z,13.34
2023-03-24T19:17:35.024Z,13.31
2023-03-24T19:22:38.051Z,13.22
2023-03-24T19:27:40.548Z,13.10
2023-03-24T19:32:43.096Z,13.12
2023-03-24T19:37:45.976Z,13.05
2023-03-24T19:42:48.792Z,12.98
2023-03-24T19:47:51.433Z,12.98
2023-03-24T19:52:54.424Z,12.86
2023-03-24T19:57:57.101Z,12.78
2023-03-24T20:02:59.799Z,12.73
2023-03-24T20:08:03.295Z,12.71
2023-03-24T20:13:06.478Z,12.61
2023-03-24T20:18:10.845Z,12.61
2023-03-24T20:23:13.346Z,12.58
2023-03-24T20:28:16.093Z,12.52
2023-03-24T20:33:18.614Z,12.45
2023-03-24T20:38:21.606Z,12.43
2023-03-24T20:43:26.625Z,12.34
2023-03-24T20:48:29.643Z,12.37
2023-03-24T20:53:36.141Z,12.26
2023-03-24T20:58:38.918Z,12.19
2023-03-24T21:03:41.698Z,12.14
2023-03-24T21:08:45.509Z,12.07
2023-03-24T21:13:48.168Z,11.99
2023-03-24T21:18:50.823Z,11.99
2023-03-24T21:23:54.322Z,11.96
2023-03-24T21:28:57.284Z,11.92
2023-03-24T21:33:59.859Z,11.93
2023-03-24T21:39:02.386Z,11.90
2023-03-24T21:44:09.720Z,11.88
2023-03-24T21:49:14.677Z,11.94
2023-03-24T21:54:19.531Z,11.93
2023-03-24T21:59:25.326Z,11.95
2023-03-24T22:04:28.020Z,11.87
2023-03-24T22:09:30.817Z,11.76
2023-03-24T22:14:33.350Z,11.79
2023-03-24T22:19:35.984Z,11.74
2023-03-24T22:24:38.827Z,11.72
2023-03-24T22:29:41.673Z,11.71
2023-03-24T22:34:44.124Z,11.66
2023-03-24T22:39:46.770Z,11.67
2023-03-24T22:44:49.383Z,11.56
2023-03-24T22:49:51.947Z,11.54
2023-03-24T22:54:56.604Z,11.47
2023-03-24T23:05:21.729Z,11.41
2023-03-24T23:10:24.401Z,11.39
2023-03-24T23:15:26.945Z,11.37
2023-03-24T23:20:30.038Z,11.35
2023-03-24T23:25:33.349Z,11.25
2023-03-24T23:30:36.093Z,11.22
2023-03-24T23:35:38.705Z,11.20
2023-03-24T23:40:41.342Z,11.15
2023-03-24T23:45:46.924Z,11.20
2023-03-24T23:51:00.404Z,11.20
2023-03-24T23:56:09.513Z,11.21
